createdAt,value
2019-05-17T00:00:51.158Z,930.04
2019-05-17T00:01:51.378Z,930
2019-05-17T00:02:52.045Z,930.02
2019-05-17T00:03:53.057Z,929.97
2019-05-17T00:04:53.774Z,929.97
2019-05-17T00:05:54.429Z,929.93
2019-05-17T00:06:56.984Z,929.96
2019-05-17T00:07:56.652Z,929.95
2019-05-17T00:08:56.474Z,929.93
2019-05-17T00:09:57.076Z,929.94
2019-05-17T00:10:57.602Z,929.9
2019-05-17T00:11:57.717Z,929.91
2019-05-17T00:12:58.101Z,929.88
2019-05-17T00:13:58.793Z,929.91
2019-05-17T00:14:59.458Z,929.87
2019-05-17T00:16:00.089Z,929.85
2019-05-17T00:17:00.478Z,929.84
2019-05-17T00:18:01.238Z,929.87
2019-05-17T00:19:02.072Z,929.86
2019-05-17T00:20:02.836Z,929.85
2019-05-17T00:21:02.955Z,929.81
2019-05-17T00:22:03.343Z,929.78
2019-05-17T00:23:03.569Z,929.76
2019-05-17T00:24:06.622Z,929.73
2019-05-17T00:25:07.124Z,929.72
2019-05-17T00:26:07.096Z,929.76
2019-05-17T00:27:06.985Z,929.75
2019-05-17T00:28:07.531Z,929.7
2019-05-17T00:29:07.983Z,929.67
2019-05-17T00:30:08.788Z,929.66
2019-05-17T00:31:09.290Z,929.66
2019-05-17T00:32:09.819Z,929.62
2019-05-17T00:33:10.170Z,929.62
2019-05-17T00:34:11.044Z,929.65
2019-05-17T00:35:12.065Z,929.61
2019-05-17T00:36:12.502Z,929.63
2019-05-17T00:37:13.571Z,929.62
2019-05-17T00:38:13.931Z,929.59
2019-05-17T00:39:16.630Z,929.6
2019-05-17T00:40:16.562Z,929.58
2019-05-17T00:41:17.468Z,929.58
2019-05-17T00:42:16.985Z,929.57
2019-05-17T00:43:17.079Z,929.56
2019-05-17T00:44:17.065Z,929.56
2019-05-17T00:45:17.664Z,929.56
2019-05-17T00:46:17.433Z,929.51
2019-05-17T00:47:18.112Z,929.5
2019-05-17T00:48:18.791Z,929.52
2019-05-17T00:49:19.822Z,929.5
2019-05-17T00:50:20.700Z,929.5
2019-05-17T00:51:21.375Z,929.47
2019-05-17T00:52:22.387Z,929.48
2019-05-17T00:53:22.775Z,929.42
2019-05-17T00:54:23.706Z,929.42
2019-05-17T00:55:24.063Z,929.42
2019-05-17T00:56:26.462Z,929.41
2019-05-17T00:57:27.276Z,929.41
2019-05-17T00:58:26.267Z,929.34
2019-05-17T00:59:26.337Z,929.38
2019-05-17T01:00:27.765Z,929.36
2019-05-17T01:01:27.625Z,929.3
2019-05-17T01:02:28.023Z,929.3
2019-05-17T01:03:28.133Z,929.3
2019-05-17T01:04:28.872Z,929.3
2019-05-17T01:05:29.367Z,929.24
2019-05-17T01:06:30.360Z,929.25
2019-05-17T01:07:31.171Z,929.25
2019-05-17T01:08:32.023Z,929.26
2019-05-17T01:09:32.666Z,929.25
2019-05-17T01:10:33.058Z,929.23
2019-05-17T01:11:33.175Z,929.2
2019-05-17T01:12:33.280Z,929.25
2019-05-17T01:13:33.693Z,929.25
2019-05-17T01:14:36.806Z,929.24
2019-05-17T01:15:36.814Z,929.22
2019-05-17T01:16:36.818Z,929.21
2019-05-17T01:17:37.307Z,929.26
2019-05-17T01:18:37.716Z,929.24
2019-05-17T01:19:38.678Z,929.24
2019-05-17T01:20:39.680Z,929.24
2019-05-17T01:21:40.616Z,929.24
2019-05-17T01:22:40.713Z,929.21
2019-05-17T01:23:41.115Z,929.21
2019-05-17T01:24:42.137Z,929.2
2019-05-17T01:25:42.233Z,929.15
2019-05-17T01:26:43.119Z,929.12
2019-05-17T01:27:43.507Z,929.15
2019-05-17T01:28:43.927Z,929.11
2019-05-17T01:29:46.568Z,929.11
2019-05-17T01:30:46.341Z,929.1
2019-05-17T01:31:46.623Z,929.08
2019-05-17T01:32:47.357Z,929.05
2019-05-17T01:33:47.753Z,929.08
2019-05-17T01:34:48.399Z,929.07
2019-05-17T01:35:49.208Z,929.02
2019-05-17T01:36:50.226Z,929.02
2019-05-17T01:37:51.213Z,928.97
2019-05-17T01:38:52.119Z,928.97
2019-05-17T01:39:52.771Z,928.98
2019-05-17T01:40:53.490Z,928.99
2019-05-17T01:41:54.538Z,929
2019-05-17T01:42:55.388Z,928.95
2019-05-17T01:43:56.884Z,928.95
2019-05-17T01:44:56.733Z,928.95
2019-05-17T01:45:57.460Z,928.95
2019-05-17T01:46:57.925Z,928.98
2019-05-17T01:47:59.006Z,928.96
2019-05-17T01:49:00.084Z,928.93
2019-05-17T01:50:01.172Z,928.96
2019-05-17T01:51:01.738Z,928.93
2019-05-17T01:52:01.895Z,928.92
2019-05-17T01:53:02.543Z,928.86
2019-05-17T01:54:02.647Z,928.87
2019-05-17T01:55:03.291Z,928.84
2019-05-17T01:56:03.676Z,928.83
2019-05-17T01:57:03.991Z,928.85
2019-05-17T01:58:07.243Z,928.85
2019-05-17T01:59:06.764Z,928.85
2019-05-17T02:00:06.421Z,928.86
2019-05-17T02:01:07.561Z,928.82
2019-05-17T02:02:07.677Z,928.82
2019-05-17T02:03:08.651Z,928.81
2019-05-17T02:04:09.135Z,928.81
2019-05-17T02:05:09.756Z,928.78
2019-05-17T02:06:09.886Z,928.76
2019-05-17T02:07:10.424Z,928.76
2019-05-17T02:08:11.312Z,928.75
2019-05-17T02:09:12.149Z,928.72
2019-05-17T02:10:12.572Z,928.77
2019-05-17T02:11:12.965Z,928.75
2019-05-17T02:12:13.732Z,928.73
2019-05-17T02:13:16.408Z,928.71
2019-05-17T02:14:16.504Z,928.66
2019-05-17T02:15:16.407Z,928.62
2019-05-17T02:16:16.494Z,928.65
2019-05-17T02:17:17.394Z,928.64
2019-05-17T02:18:17.435Z,928.61
2019-05-17T02:19:17.491Z,928.63
2019-05-17T02:20:17.956Z,928.65
2019-05-17T02:21:18.847Z,928.63
2019-05-17T02:22:19.839Z,928.64
2019-05-17T02:23:20.716Z,928.64
2019-05-17T02:24:20.905Z,928.65
2019-05-17T02:25:21.328Z,928.65
2019-05-17T02:26:21.810Z,928.6
2019-05-17T02:27:24.264Z,928.63
2019-05-17T02:28:22.946Z,928.59
2019-05-17T02:29:23.075Z,928.64
2019-05-17T02:30:23.649Z,928.64
2019-05-17T02:31:24.798Z,928.61
2019-05-17T02:32:24.483Z,928.6
2019-05-17T02:33:24.928Z,928.62
2019-05-17T02:34:25.078Z,928.65
2019-05-17T02:35:25.307Z,928.63
2019-05-17T02:36:25.707Z,928.62
2019-05-17T02:37:25.835Z,928.64
2019-05-17T02:38:26.059Z,928.61
2019-05-17T02:39:27.009Z,928.62
2019-05-17T02:40:27.646Z,928.58
2019-05-17T02:41:28.565Z,928.57
2019-05-17T02:42:29.481Z,928.61
2019-05-17T02:43:33.123Z,928.6
2019-05-17T02:44:33.464Z,928.57
2019-05-17T02:45:32.676Z,928.55
2019-05-17T02:46:33.762Z,928.57
2019-05-17T02:47:33.897Z,928.56
2019-05-17T02:48:34.336Z,928.57
2019-05-17T02:49:34.680Z,928.56
2019-05-17T02:50:35.298Z,928.55
2019-05-17T02:51:35.604Z,928.58
2019-05-17T02:52:36.451Z,928.59
2019-05-17T02:53:36.724Z,928.56
2019-05-17T02:54:37.340Z,928.58
2019-05-17T02:55:38.306Z,928.55
2019-05-17T02:56:38.714Z,928.55
2019-05-17T02:57:38.864Z,928.5
2019-05-17T02:58:39.060Z,928.49
2019-05-17T02:59:43.133Z,928.51
2019-05-17T03:00:43.956Z,928.5
2019-05-17T03:01:44.141Z,928.51
2019-05-17T03:02:43.354Z,928.49
2019-05-17T03:03:43.616Z,928.52
2019-05-17T03:04:43.214Z,928.46
2019-05-17T03:05:43.290Z,928.42
2019-05-17T03:06:44.175Z,928.44
2019-05-17T03:07:44.603Z,928.46
2019-05-17T03:08:45.295Z,928.41
2019-05-17T03:09:46.352Z,928.41
2019-05-17T03:10:46.532Z,928.4
2019-05-17T03:11:47.328Z,928.41
2019-05-17T03:12:47.734Z,928.43
2019-05-17T03:13:48.183Z,928.43
2019-05-17T03:14:48.706Z,928.42
2019-05-17T03:15:52.499Z,928.39
2019-05-17T03:16:49.762Z,928.4
2019-05-17T03:17:53.408Z,928.38
2019-05-17T03:18:52.968Z,928.35
2019-05-17T03:19:52.841Z,928.36
2019-05-17T03:20:52.742Z,928.35
2019-05-17T03:21:53.591Z,928.4
2019-05-17T03:22:53.327Z,928.34
2019-05-17T03:23:53.918Z,928.36
2019-05-17T03:24:54.011Z,928.37
2019-05-17T03:25:54.926Z,928.34
2019-05-17T03:26:55.558Z,928.36
2019-05-17T03:27:55.811Z,928.35
2019-05-17T03:28:56.512Z,928.38
2019-05-17T03:29:57.344Z,928.37
2019-05-17T03:30:57.552Z,928.39
2019-05-17T03:32:00.474Z,928.37
2019-05-17T03:32:58.888Z,928.37
2019-05-17T03:33:59.371Z,928.38
2019-05-17T03:35:05.997Z,928.36
2019-05-17T03:36:09.521Z,928.35
2019-05-17T03:37:15.481Z,928.31
2019-05-17T03:38:13.857Z,928.31
2019-05-17T03:39:12.957Z,928.35
2019-05-17T03:40:24.659Z,928.34
2019-05-17T03:41:35.349Z,928.34
2019-05-17T03:42:35.502Z,928.33
2019-05-17T03:43:39.897Z,928.36
2019-05-17T03:44:36.960Z,928.35
2019-05-17T03:45:37.416Z,928.37
2019-05-17T03:46:37.940Z,928.37
2019-05-17T03:47:38.933Z,928.34
2019-05-17T03:48:39.146Z,928.38
2019-05-17T03:49:43.469Z,928.35
2019-05-17T03:50:43.526Z,928.34
2019-05-17T03:51:42.708Z,928.29
2019-05-17T03:52:44.275Z,928.34
2019-05-17T03:53:44.100Z,928.29
2019-05-17T03:54:43.183Z,928.3
2019-05-17T03:55:43.912Z,928.3
2019-05-17T03:56:44.445Z,928.26
2019-05-17T03:57:45.217Z,928.26
2019-05-17T03:58:46.214Z,928.24
2019-05-17T03:59:46.772Z,928.22
2019-05-17T04:00:47.764Z,928.24
2019-05-17T04:01:48.815Z,928.25
2019-05-17T04:02:49.284Z,928.24
2019-05-17T04:03:52.706Z,928.29
2019-05-17T04:04:52.656Z,928.28
2019-05-17T04:05:52.823Z,928.29
2019-05-17T04:06:52.555Z,928.27
2019-05-17T04:07:53.555Z,928.27
2019-05-17T04:08:52.738Z,928.3
2019-05-17T04:09:53.157Z,928.34
2019-05-17T04:10:53.071Z,928.35
2019-05-17T04:11:53.844Z,928.34
2019-05-17T04:12:54.323Z,928.31
2019-05-17T04:13:54.609Z,928.36
2019-05-17T04:14:55.239Z,928.34
2019-05-17T04:15:55.832Z,928.37
2019-05-17T04:16:55.238Z,928.35
2019-05-17T04:17:55.985Z,928.33
2019-05-17T04:18:56.293Z,928.32
2019-05-17T04:19:56.903Z,928.34
2019-05-17T04:20:57.146Z,928.29
2019-05-17T04:21:57.563Z,928.32
2019-05-17T04:22:58.142Z,928.27
2019-05-17T04:23:58.982Z,928.26
2019-05-17T04:25:02.778Z,928.31
2019-05-17T04:25:59.734Z,928.28
2019-05-17T04:27:03.391Z,928.28
2019-05-17T04:28:02.742Z,928.26
2019-05-17T04:29:03.482Z,928.27
2019-05-17T04:30:03.572Z,928.28
2019-05-17T04:31:02.887Z,928.28
2019-05-17T04:32:04.051Z,928.28
2019-05-17T04:33:04.018Z,928.3
2019-05-17T04:34:04.607Z,928.31
2019-05-17T04:35:04.959Z,928.31
2019-05-17T04:36:05.575Z,928.33
2019-05-17T04:37:06.087Z,928.37
2019-05-17T04:38:06.696Z,928.31
2019-05-17T04:39:06.846Z,928.35
2019-05-17T04:40:07.487Z,928.36
2019-05-17T04:41:07.709Z,928.39
2019-05-17T04:42:08.706Z,928.42
2019-05-17T04:43:09.443Z,928.45
2019-05-17T04:44:12.794Z,928.45
2019-05-17T04:45:12.653Z,928.47
2019-05-17T04:46:12.900Z,928.42
2019-05-17T04:47:13.494Z,928.4
2019-05-17T04:48:13.653Z,928.37
2019-05-17T04:49:14.478Z,928.4
2019-05-17T04:50:15.442Z,928.41
2019-05-17T04:51:16.454Z,928.42
2019-05-17T04:52:16.840Z,928.36
2019-05-17T04:53:17.482Z,928.39
2019-05-17T04:54:17.755Z,928.4
2019-05-17T04:55:18.742Z,928.39
2019-05-17T04:56:22.449Z,928.41
2019-05-17T04:57:22.913Z,928.42
2019-05-17T04:58:23.170Z,928.48
2019-05-17T04:59:24.234Z,928.48
2019-05-17T05:00:22.232Z,928.48
2019-05-17T05:01:23.528Z,928.43
2019-05-17T05:02:23.685Z,928.39
2019-05-17T05:03:23.871Z,928.4
2019-05-17T05:04:24.192Z,928.4
2019-05-17T05:05:24.304Z,928.39
2019-05-17T05:06:24.659Z,928.41
2019-05-17T05:07:25.121Z,928.36
2019-05-17T05:08:25.555Z,928.38
2019-05-17T05:09:25.737Z,928.37
2019-05-17T05:10:26.674Z,928.36
2019-05-17T05:11:27.527Z,928.36
2019-05-17T05:12:28.058Z,928.41
2019-05-17T05:13:28.293Z,928.4
2019-05-17T05:14:28.684Z,928.36
2019-05-17T05:15:28.812Z,928.35
2019-05-17T05:16:31.833Z,928.36
2019-05-17T05:17:32.660Z,928.37
2019-05-17T05:18:32.647Z,928.41
2019-05-17T05:19:32.884Z,928.37
2019-05-17T05:20:32.541Z,928.37
2019-05-17T05:21:32.405Z,928.35
2019-05-17T05:22:33.219Z,928.34
2019-05-17T05:23:33.223Z,928.34
2019-05-17T05:24:33.329Z,928.33
2019-05-17T05:25:33.728Z,928.33
2019-05-17T05:26:33.864Z,928.29
2019-05-17T05:27:34.259Z,928.29
2019-05-17T05:28:35.055Z,928.27
2019-05-17T05:29:35.552Z,928.25
2019-05-17T05:30:36.631Z,928.23
2019-05-17T05:31:37.456Z,928.21
2019-05-17T05:32:37.843Z,928.18
2019-05-17T05:33:37.985Z,928.2
2019-05-17T05:34:38.375Z,928.19
2019-05-17T05:35:39.019Z,928.17
2019-05-17T05:36:41.716Z,928.17
2019-05-17T05:37:42.218Z,928.22
2019-05-17T05:38:42.202Z,928.23
2019-05-17T05:39:42.011Z,928.23
2019-05-17T05:40:42.791Z,928.24
2019-05-17T05:41:42.922Z,928.22
2019-05-17T05:42:43.437Z,928.23
2019-05-17T05:43:43.841Z,928.22
2019-05-17T05:44:44.328Z,928.22
2019-05-17T05:45:44.800Z,928.22
2019-05-17T05:46:45.067Z,928.22
2019-05-17T05:47:45.310Z,928.24
2019-05-17T05:48:45.699Z,928.26
2019-05-17T05:49:46.529Z,928.24
2019-05-17T05:50:47.605Z,928.28
2019-05-17T05:51:47.889Z,928.22
2019-05-17T05:52:48.293Z,928.32
2019-05-17T05:53:48.454Z,928.25
2019-05-17T05:54:49.401Z,928.27
2019-05-17T05:55:51.769Z,928.26
2019-05-17T05:56:52.433Z,928.26
2019-05-17T05:57:52.177Z,928.28
2019-05-17T05:58:52.343Z,928.28
2019-05-17T05:59:52.831Z,928.24
2019-05-17T06:00:53.821Z,928.28
2019-05-17T06:01:54.655Z,928.3
2019-05-17T06:02:55.146Z,928.25
2019-05-17T06:03:55.904Z,928.23
2019-05-17T06:04:56.731Z,928.27
2019-05-17T06:05:56.813Z,928.23
2019-05-17T06:06:57.509Z,928.28
2019-05-17T06:07:57.860Z,928.27
2019-05-17T06:08:58.973Z,928.26
2019-05-17T06:09:59.184Z,928.26
2019-05-17T06:11:01.893Z,928.28
2019-05-17T06:12:02.384Z,928.29
2019-05-17T06:13:02.948Z,928.29
2019-05-17T06:14:01.791Z,928.31
2019-05-17T06:15:02.880Z,928.26
2019-05-17T06:16:02.884Z,928.23
2019-05-17T06:17:03.276Z,928.24
2019-05-17T06:18:04.156Z,928.22
2019-05-17T06:19:05.189Z,928.23
2019-05-17T06:20:05.986Z,928.23
2019-05-17T06:21:06.161Z,928.23
2019-05-17T06:22:06.535Z,928.21
2019-05-17T06:23:07.071Z,928.18
2019-05-17T06:24:07.315Z,928.21
2019-05-17T06:25:07.706Z,928.2
2019-05-17T06:26:08.354Z,928.22
2019-05-17T06:27:08.768Z,928.18
2019-05-17T06:28:08.891Z,928.17
2019-05-17T06:29:11.777Z,928.22
2019-05-17T06:30:12.276Z,928.21
2019-05-17T06:31:10.956Z,928.21
2019-05-17T06:32:11.836Z,928.18
2019-05-17T06:33:13.458Z,928.18
2019-05-17T06:34:12.097Z,928.22
2019-05-17T06:35:12.902Z,928.24
2019-05-17T06:36:13.758Z,928.18
2019-05-17T06:37:16.541Z,928.16
2019-05-17T06:38:15.242Z,928.17
2019-05-17T06:39:15.747Z,928.15
2019-05-17T06:40:16.727Z,928.18
2019-05-17T06:41:17.149Z,928.16
2019-05-17T06:42:17.271Z,928.14
2019-05-17T06:43:18.223Z,928.14
2019-05-17T06:44:21.476Z,928.15
2019-05-17T06:45:19.333Z,928.16
2019-05-17T06:46:21.937Z,928.16
2019-05-17T06:47:22.502Z,928.16
2019-05-17T06:48:22.459Z,928.18
2019-05-17T06:49:22.394Z,928.18
2019-05-17T06:50:23.593Z,928.19
2019-05-17T06:51:23.102Z,928.16
2019-05-17T06:52:24.371Z,928.13
2019-05-17T06:53:24.084Z,928.16
2019-05-17T06:54:24.979Z,928.13
2019-05-17T06:55:25.496Z,928.13
2019-05-17T06:56:26.434Z,928.15
2019-05-17T06:57:26.852Z,928.16
2019-05-17T06:58:27.593Z,928.18
2019-05-17T06:59:28.000Z,928.23
2019-05-17T07:00:29.868Z,928.17
2019-05-17T07:01:29.303Z,928.14
2019-05-17T07:02:30.802Z,928.16
2019-05-17T07:03:30.387Z,928.14
2019-05-17T07:04:30.814Z,928.16
2019-05-17T07:05:31.208Z,928.16
2019-05-17T07:06:31.350Z,928.16
2019-05-17T07:07:32.223Z,928.16
2019-05-17T07:08:32.997Z,928.12
2019-05-17T07:09:36.014Z,928.14
2019-05-17T07:10:34.161Z,928.06
2019-05-17T07:11:34.587Z,928.02
2019-05-17T07:12:34.761Z,928.05
2019-05-17T07:13:35.466Z,928.03
2019-05-17T07:14:35.881Z,928.04
2019-05-17T07:15:44.485Z,928.06
2019-05-17T07:16:39.463Z,928.06
2019-05-17T07:17:39.956Z,928.09
2019-05-17T07:18:39.950Z,928.1
2019-05-17T07:19:40.018Z,928.05
2019-05-17T07:20:39.818Z,928.05
2019-05-17T07:21:40.648Z,928.05
2019-05-17T07:22:41.203Z,928.04
2019-05-17T07:23:42.107Z,928.1
2019-05-17T07:24:42.871Z,928.11
2019-05-17T07:25:44.492Z,928.15
2019-05-17T07:26:44.719Z,928.1
2019-05-17T07:27:46.087Z,928.1
2019-05-17T07:28:46.037Z,928.11
2019-05-17T07:29:47.107Z,928.11
2019-05-17T07:30:50.173Z,928.13
2019-05-17T07:31:49.750Z,928.09
2019-05-17T07:32:49.753Z,928.09
2019-05-17T07:33:50.445Z,928.08
2019-05-17T07:34:50.720Z,928.1
2019-05-17T07:35:50.365Z,928.08
2019-05-17T07:36:50.501Z,928.08
2019-05-17T07:37:51.485Z,928.1
2019-05-17T07:38:51.841Z,928.08
2019-05-17T07:40:00.987Z,928.07
2019-05-17T07:40:52.933Z,928.09
2019-05-17T07:41:53.137Z,928.08
2019-05-17T07:43:06.874Z,928.08
2019-05-17T07:43:54.551Z,928.06
2019-05-17T07:44:55.830Z,928.08
2019-05-17T07:45:55.808Z,928.07
2019-05-17T07:46:55.960Z,928.11
2019-05-17T07:47:56.332Z,928.14
2019-05-17T07:48:57.097Z,928.13
2019-05-17T07:49:57.551Z,928.14
2019-05-17T07:50:59.335Z,928.14
2019-05-17T07:52:00.575Z,928.15
2019-05-17T07:53:00.600Z,928.16
2019-05-17T07:53:59.781Z,928.23
2019-05-17T07:55:02.229Z,928.2
2019-05-17T07:56:00.090Z,928.25
2019-05-17T07:57:00.493Z,928.31
2019-05-17T07:58:00.916Z,928.27
2019-05-17T07:59:01.263Z,928.32
2019-05-17T08:00:01.396Z,928.3
2019-05-17T08:01:02.394Z,928.28
2019-05-17T08:02:02.267Z,928.28
2019-05-17T08:03:02.885Z,928.34
2019-05-17T08:04:03.359Z,928.34
2019-05-17T08:05:04.252Z,928.35
2019-05-17T08:06:05.277Z,928.36
2019-05-17T08:07:05.431Z,928.3
2019-05-17T08:08:05.783Z,928.29
2019-05-17T08:09:06.326Z,928.28
2019-05-17T08:10:07.353Z,928.26
2019-05-17T08:11:10.410Z,928.25
2019-05-17T08:12:10.990Z,928.23
2019-05-17T08:13:24.585Z,928.24
2019-05-17T08:14:10.497Z,928.25
2019-05-17T08:15:10.657Z,928.26
2019-05-17T08:16:10.885Z,928.23
2019-05-17T08:17:11.335Z,928.2
2019-05-17T08:18:11.758Z,928.23
2019-05-17T08:19:12.047Z,928.2
2019-05-17T08:20:13.151Z,928.18
2019-05-17T08:21:13.688Z,928.15
2019-05-17T08:22:14.485Z,928.14
2019-05-17T08:23:15.292Z,928.12
2019-05-17T08:24:15.756Z,928.12
2019-05-17T08:25:16.622Z,928.11
2019-05-17T08:26:17.050Z,928.11
2019-05-17T08:27:20.034Z,928.1
2019-05-17T08:28:18.499Z,928.01
2019-05-17T08:29:20.320Z,928.08
2019-05-17T08:30:20.605Z,928.05
2019-05-17T08:31:20.350Z,928.06
2019-05-17T08:32:21.153Z,928.06
2019-05-17T08:33:21.301Z,928.03
2019-05-17T08:34:21.433Z,928.03
2019-05-17T08:35:21.579Z,928.04
2019-05-17T08:36:22.648Z,928.06
2019-05-17T08:37:23.402Z,928.05
2019-05-17T08:38:24.251Z,927.99
2019-05-17T08:39:25.266Z,928
2019-05-17T08:40:26.024Z,928.06
2019-05-17T08:41:26.748Z,928.07
2019-05-17T08:42:27.039Z,928.04
2019-05-17T08:43:39.269Z,928.05
2019-05-17T08:44:29.863Z,928.05
2019-05-17T08:45:29.573Z,928.03
2019-05-17T08:46:30.488Z,928.04
2019-05-17T08:47:30.502Z,928.03
2019-05-17T08:48:31.098Z,928.07
2019-05-17T08:49:31.338Z,928.04
2019-05-17T08:50:32.865Z,928.03
2019-05-17T08:51:32.634Z,928.02
2019-05-17T08:52:33.501Z,928.06
2019-05-17T08:53:33.503Z,928.07
2019-05-17T08:54:33.923Z,928.07
2019-05-17T08:55:34.517Z,928.02
2019-05-17T08:56:34.735Z,928.02
2019-05-17T08:57:35.046Z,928.01
2019-05-17T08:58:35.691Z,927.99
2019-05-17T08:59:35.978Z,927.99
2019-05-17T09:00:36.709Z,928
2019-05-17T09:01:39.096Z,928
2019-05-17T09:02:37.211Z,927.97
2019-05-17T09:03:37.504Z,927.93
2019-05-17T09:04:40.333Z,927.89
2019-05-17T09:05:41.371Z,927.89
2019-05-17T09:06:39.694Z,927.88
2019-05-17T09:07:40.515Z,927.85
2019-05-17T09:08:40.645Z,927.81
2019-05-17T09:09:40.977Z,927.86
2019-05-17T09:10:41.845Z,927.84
2019-05-17T09:11:42.522Z,927.86
2019-05-17T09:12:42.224Z,927.82
2019-05-17T09:13:54.516Z,927.8
2019-05-17T09:14:43.131Z,927.77
2019-05-17T09:15:43.378Z,927.83
2019-05-17T09:16:44.243Z,927.76
2019-05-17T09:17:44.812Z,927.77
2019-05-17T09:18:45.815Z,927.74
2019-05-17T09:19:45.463Z,927.74
2019-05-17T09:20:46.392Z,927.74
2019-05-17T09:21:47.154Z,927.76
2019-05-17T09:22:47.738Z,927.74
2019-05-17T09:23:50.193Z,927.75
2019-05-17T09:24:49.930Z,927.75
2019-05-17T09:25:50.048Z,927.76
2019-05-17T09:26:49.636Z,927.73
2019-05-17T09:27:50.251Z,927.7
2019-05-17T09:28:51.355Z,927.66
2019-05-17T09:29:51.227Z,927.61
2019-05-17T09:30:51.795Z,927.62
2019-05-17T09:31:51.931Z,927.63
2019-05-17T09:32:53.014Z,927.6
2019-05-17T09:33:54.353Z,927.59
2019-05-17T09:34:54.640Z,927.58
2019-05-17T09:35:55.694Z,927.54
2019-05-17T09:36:56.969Z,927.59
2019-05-17T09:37:57.478Z,927.57
2019-05-17T09:39:00.052Z,927.56
2019-05-17T09:39:59.810Z,927.56
2019-05-17T09:41:00.041Z,927.52
2019-05-17T09:42:00.586Z,927.48
2019-05-17T09:43:01.052Z,927.5
2019-05-17T09:44:11.478Z,927.5
2019-05-17T09:45:01.864Z,927.51
2019-05-17T09:46:02.145Z,927.51
2019-05-17T09:47:02.909Z,927.45
2019-05-17T09:48:03.457Z,927.45
2019-05-17T09:49:03.909Z,927.46
2019-05-17T09:50:04.918Z,927.5
2019-05-17T09:51:05.270Z,927.49
2019-05-17T09:52:06.225Z,927.5
2019-05-17T09:53:06.360Z,927.44
2019-05-17T09:54:07.347Z,927.4
2019-05-17T09:55:09.840Z,927.39
2019-05-17T09:56:09.872Z,927.34
2019-05-17T09:57:10.072Z,927.31
2019-05-17T09:58:10.788Z,927.33
2019-05-17T09:59:11.365Z,927.26
2019-05-17T10:00:11.525Z,927.28
2019-05-17T10:01:12.399Z,927.24
2019-05-17T10:02:13.361Z,927.24
2019-05-17T10:03:14.845Z,927.25
2019-05-17T10:04:15.470Z,927.29
2019-05-17T10:05:16.298Z,927.29
2019-05-17T10:06:17.043Z,927.28
2019-05-17T10:07:16.873Z,927.2
2019-05-17T10:08:17.905Z,927.18
2019-05-17T10:09:19.562Z,927.13
2019-05-17T10:10:20.216Z,927.13
2019-05-17T10:11:20.246Z,927.13
2019-05-17T10:12:20.435Z,927.13
2019-05-17T10:13:21.714Z,927.11
2019-05-17T10:14:27.549Z,927.13
2019-05-17T10:15:23.043Z,927.14
2019-05-17T10:16:23.681Z,927.09
2019-05-17T10:17:24.333Z,927.07
2019-05-17T10:18:25.158Z,927.08
2019-05-17T10:19:25.584Z,927.06
2019-05-17T10:20:25.872Z,927.03
2019-05-17T10:21:26.162Z,927.06
2019-05-17T10:22:27.413Z,927.08
2019-05-17T10:23:29.490Z,927.02
2019-05-17T10:24:35.866Z,927.01
2019-05-17T10:25:29.458Z,926.99
2019-05-17T10:26:30.318Z,926.97
2019-05-17T10:27:30.180Z,926.95
2019-05-17T10:28:29.899Z,926.93
2019-05-17T10:29:30.011Z,926.86
2019-05-17T10:30:30.085Z,926.87
2019-05-17T10:31:30.815Z,926.84
2019-05-17T10:32:32.432Z,926.84
2019-05-17T10:33:32.032Z,926.84
2019-05-17T10:34:32.391Z,926.85
2019-05-17T10:35:33.618Z,926.87
2019-05-17T10:36:33.922Z,926.85
2019-05-17T10:37:34.508Z,926.83
2019-05-17T10:38:35.101Z,926.85
2019-05-17T10:39:35.640Z,926.84
2019-05-17T10:40:36.347Z,926.88
2019-05-17T10:41:36.874Z,926.81
2019-05-17T10:42:39.518Z,926.8
2019-05-17T10:43:39.232Z,926.81
2019-05-17T10:44:46.518Z,926.78
2019-05-17T10:45:40.004Z,926.81
2019-05-17T10:46:40.612Z,926.83
2019-05-17T10:47:41.182Z,926.81
2019-05-17T10:48:41.759Z,926.87
2019-05-17T10:49:42.640Z,926.84
2019-05-17T10:50:43.118Z,926.89
2019-05-17T10:51:43.944Z,926.83
2019-05-17T10:52:44.543Z,926.79
2019-05-17T10:53:45.242Z,926.79
2019-05-17T10:54:46.159Z,926.88
2019-05-17T10:55:46.625Z,926.81
2019-05-17T10:56:47.039Z,926.81
2019-05-17T10:57:49.909Z,926.83
2019-05-17T10:58:49.299Z,926.79
2019-05-17T10:59:49.877Z,926.79
2019-05-17T11:00:50.080Z,926.78
2019-05-17T11:01:50.288Z,926.75
2019-05-17T11:02:50.530Z,926.75
2019-05-17T11:03:50.474Z,926.77
2019-05-17T11:04:50.787Z,926.71
2019-05-17T11:05:51.510Z,926.72
2019-05-17T11:06:51.956Z,926.68
2019-05-17T11:07:52.487Z,926.67
2019-05-17T11:08:52.682Z,926.65
2019-05-17T11:09:53.785Z,926.69
2019-05-17T11:10:54.759Z,926.74
2019-05-17T11:11:54.754Z,926.74
2019-05-17T11:12:54.901Z,926.73
2019-05-17T11:13:55.034Z,926.77
2019-05-17T11:15:09.637Z,926.75
2019-05-17T11:15:55.773Z,926.71
2019-05-17T11:16:57.314Z,926.69
2019-05-17T11:17:56.766Z,926.72
2019-05-17T11:18:57.160Z,926.67
2019-05-17T11:19:57.740Z,926.71
2019-05-17T11:20:58.161Z,926.74
2019-05-17T11:21:58.913Z,926.74
2019-05-17T11:22:59.351Z,926.74
2019-05-17T11:24:00.088Z,926.74
2019-05-17T11:25:00.588Z,926.7
2019-05-17T11:26:01.576Z,926.76
2019-05-17T11:27:02.690Z,926.69
2019-05-17T11:28:03.155Z,926.71
2019-05-17T11:29:04.378Z,926.73
2019-05-17T11:30:04.791Z,926.68
2019-05-17T11:31:05.691Z,926.7
2019-05-17T11:32:06.405Z,926.73
2019-05-17T11:33:07.108Z,926.71
2019-05-17T11:34:07.564Z,926.67
2019-05-17T11:35:08.353Z,926.67
2019-05-17T11:36:09.379Z,926.65
2019-05-17T11:37:10.327Z,926.62
2019-05-17T11:38:11.044Z,926.61
2019-05-17T11:39:11.172Z,926.64
2019-05-17T11:40:11.308Z,926.63
2019-05-17T11:41:20.892Z,926.6
2019-05-17T11:42:13.057Z,926.63
2019-05-17T11:43:13.299Z,926.68
2019-05-17T11:44:14.194Z,926.65
2019-05-17T11:45:26.519Z,926.63
2019-05-17T11:46:14.854Z,926.65
2019-05-17T11:47:15.698Z,926.68
2019-05-17T11:48:16.334Z,926.67
2019-05-17T11:49:16.842Z,926.61
2019-05-17T11:50:17.923Z,926.65
2019-05-17T11:51:19.111Z,926.65
2019-05-17T11:52:19.798Z,926.65
2019-05-17T11:53:19.923Z,926.68
2019-05-17T11:54:20.369Z,926.66
2019-05-17T11:55:21.475Z,926.66
2019-05-17T11:56:22.244Z,926.66
2019-05-17T11:57:23.296Z,926.65
2019-05-17T11:58:23.454Z,926.67
2019-05-17T11:59:23.624Z,926.65
2019-05-17T12:00:24.130Z,926.64
2019-05-17T12:01:24.259Z,926.65
2019-05-17T12:02:24.990Z,926.6
2019-05-17T12:03:25.129Z,926.57
2019-05-17T12:04:25.844Z,926.61
2019-05-17T12:05:26.564Z,926.62
2019-05-17T12:06:26.970Z,926.64
2019-05-17T12:07:28.019Z,926.58
2019-05-17T12:08:28.151Z,926.57
2019-05-17T12:09:36.739Z,926.61
2019-05-17T12:10:28.723Z,926.63
2019-05-17T12:11:28.819Z,926.6
2019-05-17T12:12:28.946Z,926.55
2019-05-17T12:13:29.408Z,926.53
2019-05-17T12:14:29.687Z,926.54
2019-05-17T12:15:43.500Z,926.5
2019-05-17T12:16:31.132Z,926.48
2019-05-17T12:17:31.673Z,926.48
2019-05-17T12:18:32.144Z,926.47
2019-05-17T12:19:32.956Z,926.48
2019-05-17T12:20:33.149Z,926.5
2019-05-17T12:21:34.565Z,926.47
2019-05-17T12:22:34.457Z,926.47
2019-05-17T12:23:34.727Z,926.43
2019-05-17T12:24:35.511Z,926.43
2019-05-17T12:25:36.476Z,926.5
2019-05-17T12:26:37.757Z,926.46
2019-05-17T12:27:37.671Z,926.42
2019-05-17T12:28:38.400Z,926.46
2019-05-17T12:29:38.412Z,926.45
2019-05-17T12:30:38.654Z,926.47
2019-05-17T12:31:39.256Z,926.46
2019-05-17T12:32:40.081Z,926.45
2019-05-17T12:33:41.270Z,926.46
2019-05-17T12:34:41.201Z,926.47
2019-05-17T12:35:42.106Z,926.45
2019-05-17T12:36:43.405Z,926.46
2019-05-17T12:37:44.037Z,926.45
2019-05-17T12:38:44.949Z,926.45